createdAt,value
2022-12-17T00:15:54.121Z,3.07
2022-12-17T00:18:42.567Z,2.98
2022-12-17T00:21:28.773Z,2.98
2022-12-17T00:28:00.111Z,2.89
2022-12-17T00:30:45.434Z,3.25
2022-12-17T00:33:31.495Z,3.15
2022-12-17T00:36:16.803Z,2.56
2022-12-17T00:39:03.710Z,2.39
2022-12-17T00:41:49.376Z,2.42
2022-12-17T00:44:34.238Z,2.30
2022-12-17T00:47:19.277Z,2.37
2022-12-17T00:50:04.173Z,2.61
2022-12-17T00:52:49.667Z,2.96
2022-12-17T00:55:35.050Z,3.26
2022-12-17T00:58:20.481Z,3.41
2022-12-17T01:01:05.761Z,3.65
2022-12-17T01:03:51.030Z,3.71
2022-12-17T01:10:47.909Z,4.02
2022-12-17T01:13:34.766Z,4.24
2022-12-17T01:16:29.693Z,4.27
2022-12-17T01:19:16.043Z,3.87
2022-12-17T01:22:01.508Z,3.52
2022-12-17T01:24:46.956Z,3.55
2022-12-17T01:27:53.846Z,3.20
2022-12-17T01:30:41.576Z,3.48
2022-12-17T01:33:28.487Z,3.06
2022-12-17T01:43:00.875Z,3.24
2022-12-17T01:45:50.231Z,3.28
2022-12-17T01:48:36.380Z,2.92
2022-12-17T01:51:22.395Z,2.92
2022-12-17T01:54:10.289Z,2.65
2022-12-17T01:56:59.718Z,2.83
2022-12-17T01:59:57.586Z,3.05
2022-12-17T02:02:43.106Z,2.76
2022-12-17T02:05:28.444Z,2.69
2022-12-17T02:08:25.638Z,2.47
2022-12-17T02:11:22.186Z,2.28
2022-12-17T02:14:48.940Z,2.17
2022-12-17T02:17:39.969Z,2.04
2022-12-17T02:20:47.997Z,1.77
2022-12-17T02:23:57.945Z,1.93
2022-12-17T02:26:49.169Z,2.27
2022-12-17T02:29:35.537Z,2.09
2022-12-17T02:32:22.394Z,2.10
2022-12-17T02:35:07.776Z,2.25
2022-12-17T02:37:52.616Z,2.31
2022-12-17T02:43:13.517Z,2.78
2022-12-17T02:45:59.009Z,2.56
2022-12-17T02:48:56.358Z,3.03
2022-12-17T02:51:43.339Z,3.06
2022-12-17T02:54:28.749Z,3.26
2022-12-17T02:58:09.335Z,3.06
2022-12-17T03:01:16.304Z,3.25
2022-12-17T03:04:01.679Z,2.88
2022-12-17T03:06:48.123Z,2.68
2022-12-17T03:09:33.194Z,2.48
2022-12-17T03:12:18.148Z,2.61
2022-12-17T03:17:38.835Z,2.41
2022-12-17T03:20:24.826Z,2.38
2022-12-17T03:23:09.961Z,2.43
2022-12-17T03:25:55.154Z,1.99
2022-12-17T03:28:40.526Z,2.53
2022-12-17T03:35:16.223Z,2.60
2022-12-17T03:38:02.480Z,2.11
2022-12-17T03:40:47.451Z,2.61
2022-12-17T03:43:33.136Z,2.41
2022-12-17T03:46:18.645Z,2.65
2022-12-17T03:49:03.855Z,2.19
2022-12-17T03:52:08.776Z,2.49
2022-12-17T03:54:54.133Z,2.57
2022-12-17T03:57:39.750Z,2.23
2022-12-17T04:04:33.761Z,2.34
2022-12-17T04:07:19.387Z,1.79
2022-12-17T04:10:04.688Z,2.15
2022-12-17T04:12:49.783Z,1.44
2022-12-17T04:15:35.277Z,1.74
2022-12-17T04:18:20.279Z,1.82
2022-12-17T04:21:05.827Z,1.43
2022-12-17T04:23:50.791Z,1.06
2022-12-17T04:26:36.199Z,1.33
2022-12-17T04:29:20.967Z,1.41
2022-12-17T04:32:06.406Z,1.08
2022-12-17T04:34:51.349Z,1.01
2022-12-17T04:37:36.843Z,1.26
2022-12-17T04:40:22.325Z,1.30
2022-12-17T04:43:07.213Z,1.27
2022-12-17T04:45:52.244Z,1.30
2022-12-17T04:48:37.713Z,1.48
2022-12-17T04:51:23.185Z,1.00
2022-12-17T04:54:08.631Z,0.57
2022-12-17T04:56:53.517Z,0.78
2022-12-17T05:06:42.377Z,0.44
2022-12-17T05:09:27.552Z,0.69
2022-12-17T05:12:12.902Z,0.94
2022-12-17T05:14:57.976Z,0.94
2022-12-17T05:17:42.913Z,0.36
2022-12-17T05:20:28.455Z,0.97
2022-12-17T05:23:13.816Z,0.92
2022-12-17T05:25:58.741Z,0.89
2022-12-17T05:28:44.128Z,0.19
2022-12-17T05:31:29.269Z,0.70
2022-12-17T05:34:23.892Z,1.07
2022-12-17T05:41:05.317Z,1.10
2022-12-17T05:43:50.246Z,1.37
2022-12-17T05:46:35.413Z,1.49
2022-12-17T05:49:20.487Z,1.78
2022-12-17T05:52:05.845Z,1.60
2022-12-17T05:54:51.594Z,1.23
2022-12-17T05:57:36.858Z,1.90
2022-12-17T06:00:22.384Z,1.72
2022-12-17T06:03:07.136Z,0.94
2022-12-17T06:05:52.390Z,1.59
2022-12-17T06:11:36.731Z,0.98
2022-12-17T06:14:22.452Z,0.67
2022-12-17T06:17:07.648Z,1.20
2022-12-17T06:23:33.420Z,1.46
2022-12-17T06:26:19.823Z,0.84
2022-12-17T06:29:05.121Z,1.05
2022-12-17T06:31:50.182Z,0.87
2022-12-17T06:34:35.608Z,0.84
2022-12-17T06:37:20.773Z,0.89
2022-12-17T06:40:05.592Z,1.17
2022-12-17T06:42:50.556Z,0.96
2022-12-17T06:45:35.513Z,0.59
2022-12-17T06:48:22.425Z,0.29
2022-12-17T06:51:08.010Z,0.59
2022-12-17T06:53:53.384Z,0.86
2022-12-17T06:56:38.447Z,1.03
2022-12-17T06:59:23.293Z,1.06
2022-12-17T07:02:08.838Z,0.58
2022-12-17T07:10:08.051Z,0.89
2022-12-17T07:12:57.495Z,0.84
2022-12-17T07:15:42.671Z,0.74
2022-12-17T07:18:27.933Z,0.31
2022-12-17T07:21:13.429Z,0.31
2022-12-17T07:24:25.167Z,0.22
2022-12-17T07:30:09.789Z,0.83
2022-12-17T07:32:54.745Z,1.08
2022-12-17T07:35:40.219Z,1.25
2022-12-17T07:38:25.622Z,1.14
2022-12-17T07:41:11.102Z,1.20
2022-12-17T07:43:56.018Z,1.40
2022-12-17T07:46:41.349Z,1.10
2022-12-17T07:49:26.850Z,1.53
2022-12-17T07:52:12.198Z,1.64
2022-12-17T07:54:57.733Z,1.53
2022-12-17T07:57:43.168Z,1.92
2022-12-17T08:00:29.025Z,1.32
2022-12-17T08:03:26.144Z,1.30
2022-12-17T08:06:11.417Z,1.55
2022-12-17T08:08:58.397Z,1.78
2022-12-17T08:11:43.258Z,1.92
2022-12-17T08:14:28.322Z,1.43
2022-12-17T08:17:13.250Z,1.53
2022-12-17T08:19:58.267Z,1.66
2022-12-17T08:22:43.229Z,2.08
2022-12-17T08:25:28.323Z,1.76
2022-12-17T08:28:49.076Z,1.40
2022-12-17T08:31:23.835Z,1.72
2022-12-17T08:34:08.712Z,1.76
2022-12-17T08:36:53.900Z,2.13
2022-12-17T08:39:38.642Z,2.01
2022-12-17T08:42:23.750Z,1.58
2022-12-17T08:45:09.450Z,1.46
2022-12-17T08:47:57.925Z,1.60
2022-12-17T08:50:45.689Z,1.74
2022-12-17T08:53:34.709Z,2.00
2022-12-17T08:56:20.114Z,2.36
2022-12-17T08:59:05.180Z,1.90
2022-12-17T09:01:50.355Z,2.00
2022-12-17T09:04:40.015Z,2.08
2022-12-17T09:07:25.330Z,2.19
2022-12-17T09:10:20.106Z,2.25
2022-12-17T09:13:08.077Z,1.85
2022-12-17T09:15:53.147Z,2.49
2022-12-17T09:18:40.177Z,2.11
2022-12-17T09:21:26.585Z,1.83
2022-12-17T09:24:12.153Z,2.25
2022-12-17T09:26:57.089Z,2.29
2022-12-17T09:29:42.543Z,2.42
2022-12-17T09:32:27.912Z,2.11
2022-12-17T09:35:13.008Z,2.07
2022-12-17T09:37:58.366Z,1.70
2022-12-17T09:40:43.824Z,1.81
2022-12-17T09:44:06.530Z,2.30
2022-12-17T09:47:03.634Z,2.34
2022-12-17T09:49:48.538Z,2.40
2022-12-17T09:52:40.576Z,2.53
2022-12-17T09:55:52.428Z,2.77
2022-12-17T09:58:41.276Z,2.22
2022-12-17T10:01:35.540Z,2.10
2022-12-17T10:04:23.891Z,2.42
2022-12-17T10:07:09.459Z,2.80
2022-12-17T10:09:55.487Z,2.38
2022-12-17T10:12:42.438Z,2.40
2022-12-17T10:15:33.743Z,2.12
2022-12-17T10:18:27.938Z,2.02
2022-12-17T10:21:30.388Z,1.69
2022-12-17T10:24:27.078Z,1.73
2022-12-17T10:27:12.613Z,2.03
2022-12-17T10:30:00.532Z,2.40
2022-12-17T10:32:46.417Z,2.12
2022-12-17T10:35:44.104Z,2.12
2022-12-17T10:38:41.720Z,1.90
2022-12-17T10:41:44.885Z,1.94
2022-12-17T10:44:46.751Z,2.48
2022-12-17T10:47:36.847Z,1.87
2022-12-17T10:50:35.490Z,1.73
2022-12-17T10:53:21.991Z,2.00
2022-12-17T10:56:15.651Z,2.54
2022-12-17T10:59:25.122Z,2.16
2022-12-17T11:02:17.096Z,2.50
2022-12-17T11:05:10.943Z,2.60
2022-12-17T11:08:01.604Z,2.57
2022-12-17T11:10:50.732Z,2.26
2022-12-17T11:13:49.493Z,2.59
2022-12-17T11:17:01.569Z,2.87
2022-12-17T11:20:13.628Z,3.12
2022-12-17T11:23:10.076Z,2.69
2022-12-17T11:25:58.220Z,2.82
2022-12-17T11:28:46.555Z,3.14
2022-12-17T11:31:31.785Z,2.74
2022-12-17T11:34:29.059Z,2.53
2022-12-17T11:37:44.128Z,3.26
2022-12-17T11:40:46.181Z,3.50
2022-12-17T11:43:41.148Z,3.34
2022-12-17T11:46:52.493Z,3.48
2022-12-17T11:50:05.099Z,2.84
2022-12-17T11:53:02.391Z,1.91
2022-12-17T11:56:15.659Z,1.83
2022-12-17T11:59:09.136Z,1.34
2022-12-17T12:02:08.611Z,1.82
2022-12-17T12:05:41.740Z,2.42
2022-12-17T12:08:47.167Z,2.66
2022-12-17T12:12:03.554Z,2.58
2022-12-17T12:15:12.116Z,1.96
2022-12-17T12:18:00.427Z,2.31
2022-12-17T12:20:54.511Z,2.35
2022-12-17T12:24:10.103Z,2.14
2022-12-17T12:27:08.617Z,1.78
2022-12-17T12:30:03.869Z,2.49
2022-12-17T12:33:05.505Z,2.94
2022-12-17T12:35:55.343Z,2.61
2022-12-17T12:38:50.138Z,2.54
2022-12-17T12:41:58.580Z,2.48
2022-12-17T12:44:53.580Z,2.37
2022-12-17T12:47:55.497Z,1.73
2022-12-17T12:50:48.106Z,2.14
2022-12-17T12:53:33.770Z,2.16
2022-12-17T12:56:18.992Z,2.23
2022-12-17T13:01:57.044Z,1.69
2022-12-17T13:04:47.599Z,1.68
2022-12-17T13:07:56.592Z,2.12
2022-12-17T14:34:18.373Z,1.23
2022-12-17T14:36:46.419Z,0.68
2022-12-17T14:39:33.283Z,0.58
2022-12-17T14:42:29.753Z,0.92
2022-12-17T14:45:03.626Z,0.61
2022-12-17T14:55:54.874Z,0.43
2022-12-17T14:58:56.170Z,0.75
2022-12-17T15:04:25.080Z,0.99
2022-12-17T15:13:11.376Z,1.04
2022-12-17T15:15:37.944Z,0.24
2022-12-17T15:18:35.853Z,0.43
2022-12-17T15:21:03.390Z,0.53
2022-12-17T15:23:33.483Z,0.72
2022-12-17T15:26:00.114Z,0.42
2022-12-17T15:29:18.149Z,0.38
2022-12-17T15:32:05.075Z,0.45
2022-12-17T15:34:32.278Z,0.41
2022-12-17T15:37:01.877Z,0.55
2022-12-17T15:39:36.558Z,0.73
2022-12-17T15:42:45.523Z,0.97
2022-12-17T15:45:17.932Z,0.77
2022-12-17T15:53:19.028Z,0.73
2022-12-17T15:58:42.497Z,-0.16
2022-12-17T16:23:15.952Z,0.21
2022-12-17T16:50:52.763Z,0.62
2022-12-17T16:53:21.187Z,0.38
2022-12-17T16:55:50.058Z,0.06
2022-12-17T16:58:17.916Z,0.04
2022-12-17T17:09:26.312Z,-0.43
2022-12-17T17:33:10.635Z,-0.01
2022-12-17T17:35:37.600Z,0.05
2022-12-17T17:38:04.489Z,-0.20
2022-12-17T17:56:21.737Z,0.01
2022-12-17T17:58:51.458Z,-0.19
2022-12-17T18:01:22.437Z,-0.13
2022-12-17T18:03:49.331Z,0.03
2022-12-17T18:06:16.372Z,-0.07
2022-12-17T18:08:43.460Z,-0.25
2022-12-17T18:11:20.180Z,-0.59
2022-12-17T18:13:56.847Z,-0.35
2022-12-17T18:16:37.559Z,-0.43
2022-12-17T18:19:07.321Z,-0.50
2022-12-17T18:21:34.421Z,-0.52
2022-12-17T18:24:05.084Z,-0.25
2022-12-17T18:26:45.262Z,-0.25
2022-12-17T18:29:15.188Z,-0.27
2022-12-17T18:31:44.797Z,-0.34
2022-12-17T18:34:16.296Z,-0.46
2022-12-17T18:36:45.913Z,-0.49
2022-12-17T18:39:24.075Z,-0.51
2022-12-17T18:42:10.919Z,-0.51
2022-12-17T18:52:36.502Z,-0.55
2022-12-17T18:57:44.519Z,-0.83
2022-12-17T19:00:35.268Z,-0.66
2022-12-17T19:03:04.413Z,-0.48
2022-12-17T19:05:34.840Z,-0.66
2022-12-17T19:08:01.421Z,-0.51
2022-12-17T19:10:27.992Z,-0.74
2022-12-17T19:12:55.204Z,-0.70
2022-12-17T19:15:22.569Z,-0.71
2022-12-17T19:17:50.933Z,-0.32
2022-12-17T19:20:39.397Z,-0.26
2022-12-17T19:23:05.984Z,-0.36
2022-12-17T19:25:32.626Z,-0.35
2022-12-17T19:27:59.215Z,-0.31
2022-12-17T19:30:25.796Z,-0.14
2022-12-17T19:32:52.404Z,-0.37
2022-12-17T19:35:21.866Z,-0.35
2022-12-17T19:37:50.104Z,-0.50
2022-12-17T19:40:16.698Z,-0.29
2022-12-17T19:42:43.347Z,-0.07
2022-12-17T19:45:10.338Z,-0.28
2022-12-17T19:47:36.889Z,-0.15
2022-12-17T19:50:03.777Z,0.13
2022-12-17T19:52:30.394Z,-0.28
2022-12-17T19:54:56.956Z,-0.13
2022-12-17T19:57:26.419Z,-0.34
2022-12-17T19:59:52.956Z,0.00
2022-12-17T20:02:20.454Z,-0.16
2022-12-17T20:04:51.921Z,0.11
2022-12-17T20:07:18.525Z,-0.30
2022-12-17T20:09:45.190Z,-0.03
2022-12-17T20:12:11.955Z,0.04
2022-12-17T20:14:38.593Z,-0.08
2022-12-17T20:17:05.445Z,-0.36
2022-12-17T20:22:07.603Z,-0.33
2022-12-17T20:24:37.444Z,-0.26
2022-12-17T20:27:04.396Z,-0.48
2022-12-17T20:29:30.980Z,-0.18
2022-12-17T20:31:57.685Z,-0.30
2022-12-17T20:34:25.228Z,-0.03
2022-12-17T20:36:53.210Z,-0.22
2022-12-17T20:39:25.869Z,-0.58
2022-12-17T20:41:53.510Z,-0.67
2022-12-17T20:44:20.091Z,-0.65
2022-12-17T20:46:46.608Z,-0.62
2022-12-17T20:49:14.686Z,-0.67
2022-12-17T20:51:41.581Z,-0.56
2022-12-17T20:54:08.987Z,-0.91
2022-12-17T20:56:36.212Z,-0.77
2022-12-17T20:59:06.460Z,-0.90
2022-12-17T21:01:35.751Z,-0.51
2022-12-17T21:04:04.103Z,-0.52
2022-12-17T21:06:36.533Z,-0.71
2022-12-17T21:09:04.639Z,-1.01
2022-12-17T21:11:33.107Z,-0.87
2022-12-17T21:14:05.542Z,-1.00
2022-12-17T21:16:32.660Z,-0.93
2022-12-17T21:19:00.535Z,-1.04
2022-12-17T21:21:30.410Z,-1.24
2022-12-17T21:23:58.163Z,-0.95
2022-12-17T21:26:26.453Z,-0.75
2022-12-17T21:28:59.175Z,-0.90
2022-12-17T21:31:32.224Z,-1.14
2022-12-17T21:34:01.895Z,-0.82
2022-12-17T21:36:30.957Z,-0.75
2022-12-17T21:38:58.848Z,-0.68
2022-12-17T21:41:31.330Z,-0.95
2022-12-17T21:44:03.903Z,-0.54
2022-12-17T21:46:31.891Z,-0.69
2022-12-17T21:49:00.186Z,-0.67
2022-12-17T21:51:37.253Z,-0.80
2022-12-17T21:54:08.345Z,-0.71
2022-12-17T21:56:38.660Z,-1.11
2022-12-17T21:59:05.221Z,-1.29
2022-12-17T22:02:03.144Z,-1.28
2022-12-17T22:05:01.032Z,-1.42
2022-12-17T22:07:52.212Z,-1.25
2022-12-17T22:10:42.413Z,-1.43
2022-12-17T22:13:31.350Z,-1.40
2022-12-17T22:15:57.976Z,-1.40
2022-12-17T22:18:24.722Z,-1.29
2022-12-17T22:20:58.897Z,-1.40
2022-12-17T22:23:25.836Z,-1.61
2022-12-17T22:25:52.951Z,-1.25
2022-12-17T22:28:21.073Z,-1.07
2022-12-17T22:31:06.776Z,-1.11
2022-12-17T22:33:44.762Z,-1.38
2022-12-17T22:38:03.841Z,-1.06
2022-12-17T22:43:58.555Z,-1.38
2022-12-17T22:44:29.476Z,-1.23
2022-12-17T22:45:10.966Z,-1.36
2022-12-17T22:47:38.680Z,-1.51
2022-12-17T22:50:05.885Z,-1.60
2022-12-17T22:55:08.656Z,-0.93
2022-12-17T22:57:38.200Z,-0.95
2022-12-17T23:00:15.240Z,-0.94
2022-12-17T23:02:41.868Z,-0.71
2022-12-17T23:05:09.052Z,-0.95
2022-12-17T23:08:06.752Z,-1.00
2022-12-17T23:10:53.762Z,-0.67
2022-12-17T23:13:20.329Z,-0.24
2022-12-17T23:15:46.929Z,-0.37
2022-12-17T23:18:13.533Z,-0.15
2022-12-17T23:21:28.388Z,-0.19
2022-12-17T23:23:56.490Z,0.12
2022-12-17T23:26:28.450Z,0.03
2022-12-17T23:29:01.807Z,0.02
2022-12-17T23:31:32.263Z,0.21
2022-12-17T23:33:58.863Z,0.22
2022-12-17T23:39:00.806Z,0.44
2022-12-17T23:41:32.802Z,0.46
2022-12-17T23:44:09.314Z,0.12
2022-12-17T23:46:35.926Z,0.19
2022-12-17T23:49:11.658Z,0.32
